Time;durP1;ratioP1;P1;durP2;ratioP2;P2;SDS_P1;SDS_P2;PMS_P1;PMS_P2;Temp;Humidity;BMP_temperature;BMP_pressure;BME280_temperature;BME280_humidity;BME280_pressure;Samples;Min_cycle;Max_cycle;Signal;HPM_P1;HPM_P2
2023/07/03 00:00:11;;;;;;;19.40;14.40;;;;;;;12.05;100.00;96599.25;4996028;28;20647;-65
2023/07/03 00:02:39;;;;;;;17.30;15.30;;;;;;;12.06;100.00;96606.19;4998189;28;20199;-65
2023/07/03 00:05:08;;;;;;;17.00;14.97;;;;;;;11.98;100.00;96604.53;4992270;28;20224;-65
2023/07/03 00:07:36;;;;;;;18.20;14.50;;;;;;;12.12;100.00;96604.53;4997875;28;20331;-65
2023/07/03 00:10:05;;;;;;;18.47;14.87;;;;;;;12.07;100.00;96602.53;4993649;28;20238;-64
2023/07/03 00:12:33;;;;;;;20.33;15.77;;;;;;;11.96;100.00;96611.09;4986940;28;20205;-65
2023/07/03 00:15:01;;;;;;;17.57;15.70;;;;;;;11.97;100.00;96605.56;4994245;28;20236;-65
2023/07/03 00:17:29;;;;;;;18.67;15.40;;;;;;;12.04;100.00;96612.72;4995439;28;20771;-65
2023/07/03 00:19:57;;;;;;;16.33;14.53;;;;;;;12.05;100.00;96612.53;4995784;28;20780;-66
2023/07/03 00:22:25;;;;;;;19.40;16.10;;;;;;;12.02;100.00;96615.59;4993079;28;20225;-65
2023/07/03 00:24:52;;;;;;;19.90;16.07;;;;;;;11.97;100.00;96613.53;4989383;28;20664;-65
2023/07/03 00:27:20;;;;;;;18.53;16.53;;;;;;;11.92;100.00;96617.81;4995270;28;20235;-64
2023/07/03 00:29:47;;;;;;;18.00;15.23;;;;;;;11.83;100.00;96620.69;4997771;28;20212;-63
2023/07/03 00:32:16;;;;;;;18.77;15.17;;;;;;;11.78;100.00;96619.69;4996852;28;20221;-65
2023/07/03 00:34:44;;;;;;;17.03;15.27;;;;;;;11.70;100.00;96629.47;5000939;28;20673;-65
2023/07/03 00:37:12;;;;;;;16.07;14.43;;;;;;;11.69;100.00;96632.34;4992496;28;21349;-65
2023/07/03 00:39:39;;;;;;;18.43;15.07;;;;;;;11.74;100.00;96624.59;4995140;28;20204;-65
2023/07/03 00:42:07;;;;;;;17.00;15.13;;;;;;;11.74;100.00;96629.91;4991627;28;20243;-65
2023/07/03 00:44:35;;;;;;;21.53;14.80;;;;;;;11.85;100.00;96628.47;4997962;28;20232;-67
2023/07/03 00:47:03;;;;;;;19.57;16.13;;;;;;;11.97;100.00;96629.47;4998996;28;20205;-65
2023/07/03 00:49:32;;;;;;;19.23;15.60;;;;;;;12.15;100.00;96626.19;4993390;28;20287;-65
2023/07/03 00:52:02;;;;;;;19.13;14.73;;;;;;;12.23;100.00;96619.84;4989032;28;21024;-65
2023/07/03 00:54:30;;;;;;;17.07;15.33;;;;;;;12.37;100.00;96625.94;4995600;28;20198;-65
2023/07/03 00:56:58;;;;;;;18.63;14.93;;;;;;;12.24;100.00;96604.72;4989374;28;20744;-65
2023/07/03 00:59:25;;;;;;;17.50;15.03;;;;;;;12.30;100.00;96615.34;4998376;28;20284;-65
2023/07/03 01:01:56;;;;;;;19.33;14.97;;;;;;;12.28;100.00;96616.56;4998263;28;20700;-65
2023/07/03 01:04:30;;;;;;;17.00;15.00;;;;;;;12.30;100.00;96625.13;4995412;28;20259;-65
2023/07/03 01:07:01;;;;;;;17.17;14.37;;;;;;;12.25;100.00;96619.63;4990608;28;20214;-66
2023/07/03 01:09:33;;;;;;;20.63;15.47;;;;;;;12.20;100.00;96614.97;4998833;28;20212;-65
2023/07/03 01:12:01;;;;;;;19.57;15.93;;;;;;;12.18;100.00;96618.84;4991092;28;20235;-66
2023/07/03 01:14:30;;;;;;;18.57;15.03;;;;;;;12.16;100.00;96619.84;4994877;28;20716;-65
2023/07/03 01:16:58;;;;;;;17.30;15.47;;;;;;;12.11;100.00;96622.31;4999551;28;20649;-65
2023/07/03 01:19:29;;;;;;;16.93;15.13;;;;;;;12.17;100.00;96620.69;4995274;28;20213;-65
2023/07/03 01:22:03;;;;;;;17.73;14.77;;;;;;;12.16;100.00;96621.72;4998599;28;20231;-65
2023/07/03 01:24:33;;;;;;;16.73;14.67;;;;;;;12.13;100.00;96620.28;4999370;28;20320;-65
2023/07/03 01:27:03;;;;;;;17.13;13.93;;;;;;;12.09;100.00;96616.41;4989846;28;20211;-65
2023/07/03 01:29:32;;;;;;;19.43;15.97;;;;;;;12.04;100.00;96613.56;4996832;28;20225;-65
2023/07/03 01:32:00;;;;;;;17.47;14.57;;;;;;;12.12;100.00;96618.66;4995693;28;20221;-65
2023/07/03 01:34:28;;;;;;;20.07;14.97;;;;;;;12.20;100.00;96624.75;4994739;28;20295;-66
2023/07/03 01:36:58;;;;;;;17.87;15.13;;;;;;;12.28;100.00;96614.72;4992147;28;20221;-65
2023/07/03 01:39:25;;;;;;;17.97;15.17;;;;;;;12.32;100.00;96619.63;4999364;28;20243;-65
2023/07/03 01:41:55;;;;;;;19.60;15.77;;;;;;;12.30;100.00;96631.28;4992834;28;20236;-65
2023/07/03 01:44:23;;;;;;;20.73;15.20;;;;;;;12.22;100.00;96620.06;5001163;28;20213;-65
2023/07/03 01:46:50;;;;;;;20.93;14.93;;;;;;;12.16;100.00;96622.50;4999278;28;20259;-65
2023/07/03 01:49:18;;;;;;;16.00;14.37;;;;;;;12.18;100.00;96626.81;4993228;28;20205;-66
2023/07/03 01:51:49;;;;;;;19.33;15.23;;;;;;;12.21;100.00;96621.06;4993842;28;20221;-65
2023/07/03 01:54:21;;;;;;;15.77;13.97;;;;;;;12.18;100.00;96618.84;4998735;28;20208;-66
2023/07/03 01:56:50;;;;;;;20.73;15.90;;;;;;;12.14;100.00;96623.75;4988744;28;20197;-66
2023/07/03 01:59:21;;;;;;;16.90;15.13;;;;;;;12.06;100.00;96613.34;4992326;28;20213;-65
2023/07/03 02:01:51;;;;;;;19.53;15.27;;;;;;;11.97;100.00;96615.38;4998668;28;20667;-65
2023/07/03 02:04:24;;;;;;;17.50;15.43;;;;;;;11.87;100.00;96613.94;4995602;28;20283;-66
2023/07/03 02:06:52;;;;;;;19.73;15.53;;;;;;;11.80;100.00;96610.50;5001442;28;20217;-65
2023/07/03 02:09:21;;;;;;;16.90;14.70;;;;;;;11.73;100.00;96609.69;4988304;28;20845;-65
2023/07/03 02:11:49;;;;;;;17.23;15.43;;;;;;;11.68;100.00;96615.59;4995345;28;20655;-65
2023/07/03 02:14:17;;;;;;;22.53;16.03;;;;;;;11.62;100.00;96615.63;4987622;28;20739;-66
2023/07/03 02:16:48;;;;;;;20.77;14.80;;;;;;;11.57;100.00;96613.56;4998597;28;20287;-67
2023/07/03 02:19:16;;;;;;;16.67;14.90;;;;;;;11.59;100.00;96611.53;4992247;28;20205;-65
2023/07/03 02:21:45;;;;;;;18.00;15.37;;;;;;;11.65;100.00;96623.97;4999414;28;20778;-65
2023/07/03 02:24:13;;;;;;;19.73;15.17;;;;;;;11.74;100.00;96613.97;4996716;28;20244;-65
2023/07/03 02:26:41;;;;;;;17.60;15.03;;;;;;;11.84;100.00;96624.97;4992053;28;20673;-66
2023/07/03 02:29:09;;;;;;;21.73;15.47;;;;;;;11.92;100.00;96621.31;4995330;28;20213;-65
2023/07/03 02:31:36;;;;;;;19.60;15.50;;;;;;;11.98;100.00;96628.44;5001943;28;20283;-65
2023/07/03 02:34:05;;;;;;;17.67;14.73;;;;;;;11.99;100.00;96632.72;4995999;28;20205;-65
2023/07/03 02:36:34;;;;;;;17.27;15.43;;;;;;;11.94;100.00;96626.41;4996492;28;20936;-63
2023/07/03 02:39:04;;;;;;;17.23;15.37;;;;;;;11.84;100.00;96630.28;4994984;28;21145;-65
2023/07/03 02:41:32;;;;;;;17.27;15.20;;;;;;;11.96;100.00;96632.34;4989179;28;20241;-64
2023/07/03 02:44:00;;;;;;;18.07;15.07;;;;;;;11.97;100.00;96628.66;4996788;28;20205;-65
2023/07/03 02:46:28;;;;;;;16.93;15.07;;;;;;;12.04;100.00;96618.03;4998710;28;20321;-64
2023/07/03 02:48:55;;;;;;;18.07;15.43;;;;;;;12.07;100.00;96621.13;4998162;28;20231;-66
2023/07/03 02:51:24;;;;;;;17.17;15.33;;;;;;;12.16;100.00;96622.50;4989103;28;20256;-66
2023/07/03 02:53:52;;;;;;;19.13;15.60;;;;;;;12.22;100.00;96618.22;4996024;28;20209;-65
2023/07/03 02:56:20;;;;;;;17.77;14.50;;;;;;;12.29;100.00;96621.66;4987967;28;20205;-65
2023/07/03 02:58:47;;;;;;;17.30;15.17;;;;;;;12.38;100.00;96618.78;4998126;28;20201;-65
2023/07/03 03:01:15;;;;;;;18.20;15.43;;;;;;;12.36;100.00;96616.34;4996232;28;20791;-63
2023/07/03 03:03:44;;;;;;;16.53;14.40;;;;;;;12.43;100.00;96622.44;5000027;28;20213;-66
2023/07/03 03:06:12;;;;;;;19.37;14.33;;;;;;;12.56;100.00;96624.25;4990497;28;20229;-65
2023/07/03 03:08:41;;;;;;;17.23;14.93;;;;;;;12.62;100.00;96621.78;4996900;28;20746;-66
2023/07/03 03:11:09;;;;;;;17.87;14.30;;;;;;;12.63;100.00;96616.22;4991348;28;20950;-66
2023/07/03 03:13:36;;;;;;;16.80;14.30;;;;;;;12.76;100.00;96625.19;4992056;28;20225;-65
2023/07/03 03:16:05;;;;;;;18.17;15.67;;;;;;;12.79;100.00;96619.44;4994771;28;20826;-65
2023/07/03 03:18:33;;;;;;;17.43;15.57;;;;;;;12.79;100.00;96617.59;4995305;28;20211;-67
2023/07/03 03:21:00;;;;;;;17.13;14.50;;;;;;;12.79;100.00;96620.25;4995279;28;20643;-64
2023/07/03 03:23:28;;;;;;;19.60;14.17;;;;;;;12.79;100.00;96611.47;4994856;28;20220;-66
2023/07/03 03:25:57;;;;;;;16.77;14.63;;;;;;;12.59;100.00;96621.16;4993024;28;20332;-65
2023/07/03 03:28:24;;;;;;;18.47;15.40;;;;;;;12.73;100.00;96627.25;4986707;28;21239;-67
2023/07/03 03:30:52;;;;;;;16.70;14.60;;;;;;;12.76;100.00;96622.53;4995758;28;20263;-66
2023/07/03 03:33:19;;;;;;;16.77;14.30;;;;;;;12.83;100.00;96628.63;4996106;28;20208;-66
2023/07/03 03:35:47;;;;;;;17.93;15.23;;;;;;;12.92;100.00;96629.22;4993913;28;20205;-65
2023/07/03 03:38:15;;;;;;;16.67;14.83;;;;;;;12.99;100.00;96633.44;4990449;28;20232;-65
2023/07/03 03:40:43;;;;;;;16.27;14.47;;;;;;;12.99;100.00;96629.97;4992352;28;20966;-66
2023/07/03 03:43:12;;;;;;;18.93;14.47;;;;;;;12.97;100.00;96626.72;4992113;28;20240;-66
2023/07/03 03:45:40;;;;;;;16.43;14.47;;;;;;;13.00;100.00;96629.75;4999735;28;20208;-66
2023/07/03 03:48:08;;;;;;;17.23;15.07;;;;;;;13.14;100.00;96633.16;4992500;28;20252;-66
2023/07/03 03:50:35;;;;;;;21.03;14.37;;;;;;;13.18;100.00;96630.91;4989105;28;20247;-66
2023/07/03 03:53:03;;;;;;;17.03;14.50;;;;;;;13.16;100.00;96635.63;4995463;28;20209;-65
2023/07/03 03:55:31;;;;;;;16.70;13.83;;;;;;;13.28;100.00;96638.41;4994658;28;20316;-65
2023/07/03 03:57:58;;;;;;;19.70;14.40;;;;;;;13.28;100.00;96638.41;4990799;28;20619;-66
2023/07/03 04:00:27;;;;;;;16.13;14.57;;;;;;;13.35;100.00;96633.03;5000956;28;21557;-66
2023/07/03 04:02:55;;;;;;;18.53;14.93;;;;;;;13.40;100.00;96638.50;4999153;28;20300;-66
2023/07/03 04:05:23;;;;;;;16.97;13.87;;;;;;;13.46;100.00;96635.06;4992787;28;20212;-65
2023/07/03 04:07:50;;;;;;;16.43;14.70;;;;;;;13.40;100.00;96641.19;4998089;28;20228;-65
2023/07/03 04:10:18;;;;;;;18.10;14.67;;;;;;;13.46;100.00;96635.84;4997145;28;20204;-65
2023/07/03 04:12:46;;;;;;;19.13;14.60;;;;;;;13.43;100.00;96636.28;4998152;28;20675;-65
2023/07/03 04:15:13;;;;;;;16.87;15.07;;;;;;;13.42;100.00;96639.97;4999389;28;20292;-65
2023/07/03 04:17:42;;;;;;;16.73;14.30;;;;;;;13.46;100.00;96640.38;4998118;28;20232;-67
2023/07/03 04:20:13;;;;;;;16.73;13.80;;;;;;;13.55;100.00;96639.06;4996250;28;20277;-66
2023/07/03 04:22:41;;;;;;;20.43;15.27;;;;;;;13.56;100.00;96640.69;5002095;28;20209;-65
2023/07/03 04:25:09;;;;;;;19.63;15.03;;;;;;;13.54;100.00;96631.28;4996489;28;20267;-65
2023/07/03 04:27:37;;;;;;;19.47;13.33;;;;;;;13.52;100.00;96634.19;4993771;28;20734;-65
2023/07/03 04:30:06;;;;;;;17.43;13.70;;;;;;;13.64;100.00;96631.63;4998085;28;20194;-66
2023/07/03 04:32:35;;;;;;;15.37;13.80;;;;;;;13.66;100.00;96634.91;5000801;28;20296;-67
2023/07/03 04:35:07;;;;;;;15.57;12.80;;;;;;;13.70;100.00;96636.09;4998598;28;20736;-66
2023/07/03 04:37:36;;;;;;;17.47;14.37;;;;;;;13.78;100.00;96634.97;4991080;28;20197;-67
2023/07/03 04:40:04;;;;;;;16.83;13.90;;;;;;;13.90;100.00;96632.44;4992802;28;20209;-65
2023/07/03 04:42:32;;;;;;;15.67;13.63;;;;;;;13.84;100.00;96642.13;4998103;28;20255;-66
2023/07/03 04:45:02;;;;;;;17.03;14.03;;;;;;;14.02;100.00;96644.00;5001113;28;20215;-67
2023/07/03 04:47:29;;;;;;;17.90;13.47;;;;;;;14.11;100.00;96633.06;4999302;28;20670;-66
2023/07/03 04:49:58;;;;;;;18.30;13.27;;;;;;;14.14;100.00;96635.28;4998082;28;21557;-66
2023/07/03 04:52:27;;;;;;;16.73;14.17;;;;;;;14.28;100.00;96636.78;4992845;28;20224;-67
2023/07/03 04:54:55;;;;;;;16.83;13.80;;;;;;;14.28;100.00;96644.75;4996085;28;20205;-66
2023/07/03 04:57:23;;;;;;;16.97;14.40;;;;;;;14.38;100.00;96649.59;4991647;28;20205;-67
2023/07/03 04:59:51;;;;;;;14.97;13.43;;;;;;;14.54;100.00;96644.69;4996016;28;20225;-65
2023/07/03 05:02:20;;;;;;;14.37;12.97;;;;;;;14.63;100.00;96646.03;4998382;28;20256;-65
2023/07/03 05:04:47;;;;;;;16.67;13.27;;;;;;;14.54;100.00;96650.03;4995123;28;20217;-65
2023/07/03 05:07:18;;;;;;;16.73;13.47;;;;;;;14.72;100.00;96652.72;4995435;28;20711;-67
2023/07/03 05:09:47;;;;;;;15.33;13.00;;;;;;;14.80;100.00;96648.13;4991490;28;20336;-65
2023/07/03 05:12:15;;;;;;;21.33;14.80;;;;;;;14.87;100.00;96652.34;4992224;28;20778;-66
2023/07/03 05:14:42;;;;;;;20.33;13.43;;;;;;;14.82;100.00;96635.38;5002473;28;20205;-65
2023/07/03 05:17:10;;;;;;;15.13;13.47;;;;;;;14.96;100.00;96652.03;5000479;28;20205;-65
2023/07/03 05:19:37;;;;;;;17.57;14.93;;;;;;;15.02;100.00;96654.63;4989086;28;20248;-66
2023/07/03 05:22:05;;;;;;;16.27;13.97;;;;;;;15.14;100.00;96656.50;4998498;28;20704;-66
2023/07/03 05:24:34;;;;;;;15.23;13.43;;;;;;;15.18;100.00;96655.84;4992286;28;20217;-65
2023/07/03 05:27:03;;;;;;;16.07;13.93;;;;;;;15.26;100.00;96659.22;4995225;28;20220;-65
2023/07/03 05:29:32;;;;;;;15.60;14.00;;;;;;;15.30;100.00;96655.06;4996795;28;20244;-66
2023/07/03 05:32:00;;;;;;;14.73;13.20;;;;;;;15.47;100.00;96653.34;4999896;28;20314;-67
2023/07/03 05:34:28;;;;;;;18.63;14.23;;;;;;;15.39;100.00;96652.91;4991996;28;20220;-65
2023/07/03 05:36:56;;;;;;;17.77;13.70;;;;;;;15.43;100.00;96652.19;4997988;28;20844;-64
2023/07/03 05:39:24;;;;;;;17.47;14.17;;;;;;;15.42;100.00;96649.75;4995831;28;20205;-65
2023/07/03 05:41:52;;;;;;;15.90;13.10;;;;;;;15.47;100.00;96658.69;4992716;28;20255;-65
2023/07/03 05:44:21;;;;;;;14.23;12.73;;;;;;;15.59;100.00;96658.72;4994443;28;20849;-65
2023/07/03 05:46:48;;;;;;;16.63;13.40;;;;;;;15.72;100.00;96659.56;4998050;28;20231;-65
2023/07/03 05:49:16;;;;;;;17.10;13.87;;;;;;;15.93;100.00;96660.91;4994279;28;20573;-65
2023/07/03 05:51:44;;;;;;;17.97;13.53;;;;;;;16.02;100.00;96658.69;4992779;28;20311;-66
2023/07/03 05:54:12;;;;;;;15.70;13.63;;;;;;;16.03;100.00;96666.50;4996248;28;20247;-66
2023/07/03 05:56:41;;;;;;;15.90;14.03;;;;;;;16.00;100.00;96674.16;4994002;28;20761;-66
2023/07/03 05:59:09;;;;;;;17.03;13.30;;;;;;;16.09;100.00;96670.09;4999384;28;20224;-65
2023/07/03 06:01:38;;;;;;;16.77;14.17;;;;;;;16.08;100.00;96668.44;4999245;28;20720;-66
2023/07/03 06:04:05;;;;;;;16.93;13.73;;;;;;;16.24;100.00;96669.63;4996213;28;20244;-66
2023/07/03 06:06:34;;;;;;;18.27;13.57;;;;;;;16.04;100.00;96672.63;4990421;28;20205;-67
2023/07/03 06:09:01;;;;;;;16.47;12.63;;;;;;;16.05;100.00;96676.94;4994595;28;20710;-67
2023/07/03 06:11:30;;;;;;;14.83;12.63;;;;;;;16.05;100.00;96674.25;4991545;28;20295;-66
2023/07/03 06:13:58;;;;;;;22.13;13.53;;;;;;;16.06;100.00;96675.88;4994310;28;20205;-65
2023/07/03 06:16:27;;;;;;;17.23;13.37;;;;;;;16.21;100.00;96678.09;4996756;28;20252;-66
2023/07/03 06:18:56;;;;;;;16.40;13.23;;;;;;;16.20;100.00;96679.97;4999063;28;20210;-66
2023/07/03 06:21:23;;;;;;;15.37;13.30;;;;;;;16.16;100.00;96673.47;4993879;28;20249;-65
2023/07/03 06:23:51;;;;;;;16.40;13.43;;;;;;;16.30;100.00;96676.72;4993083;28;20284;-65
2023/07/03 06:26:19;;;;;;;15.37;12.93;;;;;;;16.48;100.00;96681.13;4996493;28;20295;-65
2023/07/03 06:28:47;;;;;;;19.30;12.83;;;;;;;16.46;100.00;96685.06;4990126;28;20279;-65
2023/07/03 06:31:14;;;;;;;17.43;13.07;;;;;;;16.51;100.00;96689.75;4997300;28;20778;-66
2023/07/03 06:33:42;;;;;;;14.53;12.10;;;;;;;16.61;100.00;96687.28;4996921;28;20209;-66
2023/07/03 06:36:11;;;;;;;15.67;12.87;;;;;;;16.76;100.00;96690.25;4995010;28;21287;-64
2023/07/03 06:38:39;;;;;;;15.80;13.13;;;;;;;16.84;100.00;96691.75;4991502;28;20319;-64
2023/07/03 06:41:06;;;;;;;15.53;13.10;;;;;;;16.73;100.00;96695.28;4994704;28;20266;-64
2023/07/03 06:43:34;;;;;;;15.43;12.53;;;;;;;16.89;100.00;96688.38;4993015;28;20218;-64
2023/07/03 06:46:01;;;;;;;15.87;12.60;;;;;;;17.09;100.00;96687.19;4997691;28;20255;-64
2023/07/03 06:48:29;;;;;;;17.07;13.07;;;;;;;17.31;100.00;96693.50;4997050;28;20259;-64
2023/07/03 06:51:03;;;;;;;18.67;12.70;;;;;;;17.33;100.00;96691.41;4994894;28;20249;-65
2023/07/03 06:53:32;;;;;;;15.70;12.27;;;;;;;17.19;100.00;96696.22;4990026;28;20231;-63
2023/07/03 06:56:01;;;;;;;13.90;12.40;;;;;;;17.41;100.00;96697.44;4991700;28;20304;-64
2023/07/03 06:58:29;;;;;;;15.13;13.07;;;;;;;17.56;100.00;96696.91;4991594;28;20196;-64
2023/07/03 07:00:57;;;;;;;14.53;12.27;;;;;;;17.63;100.00;96692.19;4997470;28;20220;-63
2023/07/03 07:03:25;;;;;;;14.97;12.37;;;;;;;17.36;100.00;96682.91;4995793;28;20244;-63
2023/07/03 07:05:54;;;;;;;16.73;12.07;;;;;;;17.53;100.00;96698.16;4992277;28;20251;-64
2023/07/03 07:08:23;;;;;;;12.77;11.50;;;;;;;17.85;100.00;96689.63;4991924;28;20225;-63
2023/07/03 07:10:51;;;;;;;15.57;12.03;;;;;;;18.02;100.00;96681.59;4985061;28;20237;-63
2023/07/03 07:13:21;;;;;;;13.43;11.50;;;;;;;18.38;100.00;96678.66;4990591;28;20198;-64
2023/07/03 07:15:48;;;;;;;14.67;13.10;;;;;;;18.43;100.00;96683.25;4995760;28;20835;-65
2023/07/03 07:18:16;;;;;;;16.67;12.20;;;;;;;18.64;100.00;96677.13;4994722;28;20299;-65
2023/07/03 07:20:44;;;;;;;15.80;12.53;;;;;;;18.73;100.00;96680.16;4991898;28;20739;-65
2023/07/03 07:23:11;;;;;;;13.93;12.23;;;;;;;18.88;100.00;96674.19;4987120;28;20232;-65
2023/07/03 07:25:40;;;;;;;13.10;11.70;;;;;;;19.04;100.00;96677.09;4994049;28;20213;-66
2023/07/03 07:28:08;;;;;;;14.30;11.80;;;;;;;19.50;100.00;96674.06;4987665;28;20318;-66
2023/07/03 07:30:38;;;;;;;17.10;11.93;;;;;;;19.56;97.87;96673.06;4994568;28;20229;-65
2023/07/03 07:33:05;;;;;;;14.90;10.37;;;;;;;20.00;95.01;96674.81;4999807;28;20263;-65
2023/07/03 07:35:35;;;;;;;14.27;10.77;;;;;;;20.22;92.55;96672.00;4995233;28;20588;-66
2023/07/03 07:38:03;;;;;;;19.17;11.37;;;;;;;19.87;87.97;96678.69;4995427;28;20224;-65
2023/07/03 07:40:31;;;;;;;30.47;13.23;;;;;;;19.81;91.76;96679.72;4994114;28;20611;-65
2023/07/03 07:42:58;;;;;;;13.30;11.17;;;;;;;20.14;89.50;96680.56;4990325;28;20228;-66
2023/07/03 07:45:27;;;;;;;16.73;11.07;;;;;;;20.20;87.46;96676.81;4993319;28;20213;-65
2023/07/03 07:47:55;;;;;;;12.43;11.10;;;;;;;20.45;85.47;96688.00;4994815;28;20205;-65
2023/07/03 07:50:23;;;;;;;13.57;10.37;;;;;;;19.84;85.81;96684.59;4993518;28;20205;-64
2023/07/03 07:52:50;;;;;;;15.67;11.47;;;;;;;20.04;82.09;96680.50;4987059;28;20218;-65
2023/07/03 07:55:18;;;;;;;12.43;9.50;;;;;;;20.62;84.20;96679.75;4991430;28;20209;-65
2023/07/03 07:57:46;;;;;;;12.90;10.73;;;;;;;20.76;81.84;96672.84;4988528;28;20209;-65
2023/07/03 08:00:15;;;;;;;19.63;11.70;;;;;;;21.03;80.13;96674.63;4995043;28;20348;-65
2023/07/03 08:02:44;;;;;;;13.60;10.67;;;;;;;21.33;79.11;96667.66;4990171;28;21119;-65
2023/07/03 08:05:11;;;;;;;11.70;10.43;;;;;;;21.18;74.31;96673.81;4994002;28;20236;-65
2023/07/03 08:07:39;;;;;;;14.37;9.90;;;;;;;21.35;79.02;96659.34;4982988;28;20217;-65
2023/07/03 08:10:07;;;;;;;12.87;10.03;;;;;;;21.35;75.38;96665.50;4990374;28;20271;-64
2023/07/03 08:12:35;;;;;;;14.67;10.67;;;;;;;21.77;77.51;96663.72;4989152;28;20969;-65
2023/07/03 08:15:04;;;;;;;16.10;10.37;;;;;;;21.93;75.79;96656.44;4994544;28;20264;-65
2023/07/03 08:17:31;;;;;;;14.33;10.53;;;;;;;22.07;76.16;96653.19;4993092;28;20229;-65
2023/07/03 08:20:00;;;;;;;11.97;9.73;;;;;;;21.48;73.65;96656.13;4990404;28;20875;-65
2023/07/03 08:22:28;;;;;;;15.57;11.90;;;;;;;21.29;74.70;96655.00;4988099;28;20877;-65
2023/07/03 08:24:56;;;;;;;11.27;10.10;;;;;;;21.28;73.92;96653.41;4993011;28;20206;-66
2023/07/03 08:27:23;;;;;;;13.83;10.53;;;;;;;21.17;74.79;96647.97;4989882;28;20264;-65
2023/07/03 08:29:51;;;;;;;11.53;10.17;;;;;;;21.31;71.85;96652.88;4994674;28;20225;-66
2023/07/03 08:32:21;;;;;;;11.87;9.10;;;;;;;21.67;71.27;96651.03;4990405;28;20225;-66
2023/07/03 08:34:49;;;;;;;14.17;9.40;;;;;;;21.78;67.88;96659.13;4994410;28;20202;-66
2023/07/03 08:37:21;;;;;;;13.63;10.07;;;;;;;22.11;66.67;96654.25;4991663;28;20915;-66
2023/07/03 08:39:49;;;;;;;9.53;8.50;;;;;;;22.17;64.23;96655.06;4990600;28;20985;-66
2023/07/03 08:42:23;;;;;;;11.70;9.03;;;;;;;22.10;64.18;96653.47;4988176;28;20998;-65
2023/07/03 08:44:51;;;;;;;11.70;9.60;;;;;;;22.14;61.20;96651.00;4997244;28;20193;-65
2023/07/03 08:47:22;;;;;;;12.27;9.67;;;;;;;21.86;61.14;96647.00;4995939;28;20226;-65
2023/07/03 08:49:50;;;;;;;13.00;8.70;;;;;;;22.02;62.63;96642.41;4994704;28;20225;-65
2023/07/03 08:52:22;;;;;;;13.70;9.30;;;;;;;21.76;63.53;96648.63;4995628;28;20248;-64
2023/07/03 08:54:50;;;;;;;13.17;9.43;;;;;;;21.18;63.39;96654.97;4994647;28;20236;-65
2023/07/03 08:57:18;;;;;;;11.90;9.53;;;;;;;20.87;64.88;96649.50;4989723;28;20233;-65
2023/07/03 08:59:46;;;;;;;10.57;8.10;;;;;;;20.51;65.05;96649.31;4998112;28;20247;-65
2023/07/03 09:02:20;;;;;;;10.90;9.43;;;;;;;20.35;66.30;96637.66;4999448;28;20255;-63
2023/07/03 09:04:58;;;;;;;12.67;9.80;;;;;;;20.40;69.52;96653.84;4998877;28;20216;-65
2023/07/03 09:07:32;;;;;;;8.93;7.97;;;;;;;20.25;68.68;96658.03;4993843;28;20219;-65
2023/07/03 09:10:04;;;;;;;12.73;8.90;;;;;;;20.05;69.66;96649.84;4992065;28;20301;-65
2023/07/03 09:12:35;;;;;;;13.67;9.83;;;;;;;20.23;71.12;96654.78;4993480;28;20231;-64
2023/07/03 09:15:08;;;;;;;10.30;8.73;;;;;;;20.59;69.23;96656.06;4999364;28;20250;-64
2023/07/03 09:17:36;;;;;;;10.73;9.30;;;;;;;20.29;68.68;96661.03;4996674;28;20212;-64
2023/07/03 09:20:06;;;;;;;12.57;9.10;;;;;;;20.64;70.70;96656.91;4991764;28;20231;-65
2023/07/03 09:22:39;;;;;;;14.17;8.70;;;;;;;20.68;68.75;96654.50;4993665;28;20715;-64
2023/07/03 09:25:07;;;;;;;16.63;8.77;;;;;;;21.06;64.90;96655.22;4998333;28;20290;-65
2023/07/03 09:27:35;;;;;;;12.20;8.77;;;;;;;21.00;66.28;96650.09;4992815;28;20205;-64
2023/07/03 09:30:07;;;;;;;12.73;8.50;;;;;;;21.00;64.83;96656.25;4993108;28;20229;-64
2023/07/03 09:32:34;;;;;;;11.33;8.70;;;;;;;21.54;65.33;96662.31;4995666;28;20201;-64
2023/07/03 09:35:06;;;;;;;13.10;9.80;;;;;;;21.62;62.58;96666.38;5001252;28;20207;-65
2023/07/03 09:37:38;;;;;;;10.87;8.77;;;;;;;21.31;63.61;96669.03;4992168;28;20206;-64
2023/07/03 09:40:09;;;;;;;15.87;9.53;;;;;;;21.50;63.00;96669.34;4989494;28;20202;-65
2023/07/03 09:42:37;;;;;;;11.10;8.77;;;;;;;21.56;67.58;96660.16;4994709;28;20596;-66
2023/07/03 09:45:13;;;;;;;11.47;9.13;;;;;;;22.51;62.33;96662.59;4996197;28;20204;-65
2023/07/03 09:47:42;;;;;;;10.83;8.43;;;;;;;22.51;57.23;96659.91;4994630;28;20212;-63
2023/07/03 09:50:10;;;;;;;10.17;8.23;;;;;;;22.26;57.75;96664.22;4993418;28;20228;-64
2023/07/03 09:52:45;;;;;;;12.00;9.03;;;;;;;22.56;59.43;96659.88;4989470;28;20561;-64
2023/07/03 09:55:33;;;;;;;10.93;8.00;;;;;;;22.07;56.35;96662.09;4993818;28;20212;-65
2023/07/03 09:58:11;;;;;;;14.73;8.60;;;;;;;21.83;56.18;96664.53;4991321;28;20224;-65
2023/07/03 10:00:44;;;;;;;13.37;8.03;;;;;;;22.19;57.50;96664.53;4999103;28;20225;-64
2023/07/03 10:03:22;;;;;;;11.13;8.47;;;;;;;22.03;57.13;96673.69;4999881;28;20200;-64
2023/07/03 10:05:53;;;;;;;10.20;7.70;;;;;;;21.64;56.10;96666.97;4991944;28;20329;-65
2023/07/03 10:08:27;;;;;;;10.20;6.70;;;;;;;21.98;55.68;96678.00;4994288;28;20284;-64
2023/07/03 10:11:00;;;;;;;11.73;7.70;;;;;;;21.77;55.04;96679.06;4993779;28;20283;-64
2023/07/03 10:13:34;;;;;;;7.93;7.00;;;;;;;21.79;53.72;96668.84;4995470;28;20236;-65
2023/07/03 10:16:02;;;;;;;11.77;7.57;;;;;;;21.73;54.42;96669.91;4999363;28;20197;-64
2023/07/03 10:18:32;;;;;;;12.27;7.07;;;;;;;21.87;53.99;96673.72;4997066;28;20209;-65
2023/07/03 10:21:02;;;;;;;9.93;7.00;;;;;;;21.81;54.21;96680.19;4994579;28;20306;-64
2023/07/03 10:23:33;;;;;;;8.97;6.33;;;;;;;21.86;51.89;96677.47;4989682;28;20201;-63
2023/07/03 10:26:04;;;;;;;7.20;6.50;;;;;;;21.94;52.60;96676.94;4987578;28;20754;-64
2023/07/03 10:28:34;;;;;;;8.97;5.87;;;;;;;21.68;53.36;96682.31;4997956;28;20692;-64
2023/07/03 10:31:06;;;;;;;8.77;6.60;;;;;;;22.07;51.69;96672.06;4992844;28;20396;-65
2023/07/03 10:33:37;;;;;;;8.70;6.80;;;;;;;22.79;50.65;96671.94;4994195;28;20216;-64
2023/07/03 10:36:08;;;;;;;8.57;6.90;;;;;;;23.11;52.14;96665.31;4992082;28;20232;-65
2023/07/03 10:38:41;;;;;;;16.87;6.93;;;;;;;23.34;50.75;96663.09;5000601;28;20205;-64
2023/07/03 10:41:14;;;;;;;8.40;7.40;;;;;;;22.96;51.31;96666.22;4991837;28;20224;-65
2023/07/03 10:43:46;;;;;;;8.50;7.43;;;;;;;23.04;51.72;96666.72;4990738;28;20208;-64
2023/07/03 10:46:18;;;;;;;9.43;6.77;;;;;;;23.08;52.71;96663.19;4992049;28;20267;-65
2023/07/03 10:48:46;;;;;;;13.33;7.77;;;;;;;22.98;51.27;96653.22;4995420;28;20201;-65
2023/07/03 10:51:19;;;;;;;13.50;7.77;;;;;;;23.31;50.49;96660.94;4995510;28;20287;-63
2023/07/03 10:53:53;;;;;;;8.20;6.97;;;;;;;23.26;51.57;96660.94;4993380;28;20286;-64
2023/07/03 10:56:24;;;;;;;7.40;6.70;;;;;;;23.45;55.17;96644.09;4990035;28;20291;-64
2023/07/03 10:58:59;;;;;;;9.97;6.93;;;;;;;23.34;49.20;96665.78;4989662;28;20201;-64
2023/07/03 11:01:35;;;;;;;9.43;7.00;;;;;;;23.46;48.64;96657.31;4999484;28;20232;-64
2023/07/03 11:04:11;;;;;;;8.33;6.53;;;;;;;23.54;48.45;96654.03;4997047;28;20672;-65
2023/07/03 11:07:04;;;;;;;8.70;6.27;;;;;;;22.92;47.85;96658.91;4986332;28;20613;-63
2023/07/03 11:09:40;;;;;;;8.57;7.00;;;;;;;23.18;48.08;96656.09;4996597;28;20832;-64
2023/07/03 11:12:15;;;;;;;9.33;6.60;;;;;;;23.10;48.46;96652.91;4994258;28;20742;-64
2023/07/03 11:14:52;;;;;;;8.07;6.03;;;;;;;23.04;47.99;96650.50;4996420;28;20208;-64
2023/07/03 11:17:27;;;;;;;7.43;6.33;;;;;;;23.36;51.13;96644.69;4997004;28;20254;-64
2023/07/03 11:20:04;;;;;;;6.80;5.47;;;;;;;23.84;50.96;96645.97;4990165;28;20208;-64
2023/07/03 11:22:36;;;;;;;7.13;5.40;;;;;;;23.58;46.74;96659.66;4992584;28;20224;-64